Time;durP1;ratioP1;P1;durP2;ratioP2;P2;SDS_P1;SDS_P2;PMS_P1;PMS_P2;Temp;Humidity;BMP_temperature;BMP_pressure;BME280_temperature;BME280_humidity;BME280_pressure;Samples;Min_cycle;Max_cycle;Signal;HPM_P1;HPM_P2
2022/08/21 00:00:58;;;;;;;0.80;0.40;;;;;;;;;;10493057;28;20221;-69
2022/08/21 00:06:00;;;;;;;0.35;0.35;;;;;;;;;;10495372;28;20224;-69
2022/08/21 00:11:01;;;;;;;0.50;0.50;;;;;;;;;;10493002;28;20279;-69
2022/08/21 00:16:02;;;;;;;0.50;0.50;;;;;;;;;;10465398;28;20217;-69
2022/08/21 00:21:04;;;;;;;0.40;0.40;;;;;;;;;;10498409;28;20229;-68
2022/08/21 00:26:05;;;;;;;0.45;0.45;;;;;;;;;;10494558;28;20242;-69
2022/08/21 00:31:06;;;;;;;0.40;0.40;;;;;;;;;;10495028;28;20298;-68
2022/08/21 00:36:07;;;;;;;0.40;0.40;;;;;;;;;;10493947;28;20217;-68
2022/08/21 00:41:09;;;;;;;0.30;0.30;;;;;;;;;;10503529;28;20218;-69
2022/08/21 00:46:10;;;;;;;0.38;0.38;;;;;;;;;;10506648;28;20253;-69
2022/08/21 00:51:14;;;;;;;0.40;0.40;;;;;;;;;;10474386;28;20245;-69
2022/08/21 00:56:15;;;;;;;0.40;0.40;;;;;;;;;;10491215;28;20279;-69
2022/08/21 01:01:16;;;;;;;0.40;0.40;;;;;;;;;;10502794;28;20251;-69
2022/08/21 01:06:18;;;;;;;0.40;0.40;;;;;;;;;;10452388;28;20222;-68
2022/08/21 01:11:19;;;;;;;0.75;0.40;;;;;;;;;;10502910;28;20294;-68
2022/08/21 01:16:21;;;;;;;0.40;0.40;;;;;;;;;;10481419;28;20337;-69
2022/08/21 01:21:24;;;;;;;0.22;0.22;;;;;;;;;;10478229;28;20268;-68
2022/08/21 01:26:29;;;;;;;0.40;0.40;;;;;;;;;;10496516;28;20673;-69
2022/08/21 01:31:32;;;;;;;0.30;0.30;;;;;;;;;;10497031;28;20206;-68
2022/08/21 01:36:33;;;;;;;0.30;0.30;;;;;;;;;;10499567;28;20981;-68
2022/08/21 01:41:34;;;;;;;0.35;0.35;;;;;;;;;;10486389;28;20214;-69
2022/08/21 01:46:36;;;;;;;0.32;0.32;;;;;;;;;;10498822;28;20218;-69
2022/08/21 01:51:37;;;;;;;0.40;0.40;;;;;;;;;;10480254;28;20218;-69
2022/08/21 01:56:39;;;;;;;0.50;0.50;;;;;;;;;;10502086;28;20837;-69
2022/08/21 02:01:40;;;;;;;1.55;1.05;;;;;;;;;;10499225;28;20218;-69
2022/08/21 02:06:42;;;;;;;0.50;0.50;;;;;;;;;;10496655;28;20229;-69
2022/08/21 02:11:43;;;;;;;0.57;0.35;;;;;;;;;;10485773;28;20217;-69
2022/08/21 02:16:45;;;;;;;0.52;0.47;;;;;;;;;;10495876;28;20206;-69
2022/08/21 02:21:46;;;;;;;1.70;0.50;;;;;;;;;;10499414;28;20654;-69
2022/08/21 02:26:47;;;;;;;0.50;0.50;;;;;;;;;;10480973;28;20225;-69
2022/08/21 02:31:48;;;;;;;0.30;0.30;;;;;;;;;;10501046;28;20225;-68
2022/08/21 02:36:49;;;;;;;0.40;0.40;;;;;;;;;;10464200;28;20338;-69
2022/08/21 02:41:50;;;;;;;0.55;0.55;;;;;;;;;;10502098;28;20213;-69
2022/08/21 02:46:51;;;;;;;0.43;0.43;;;;;;;;;;10480255;28;20243;-68
2022/08/21 02:51:52;;;;;;;0.40;0.40;;;;;;;;;;10497676;28;20222;-69
2022/08/21 02:56:53;;;;;;;0.55;0.55;;;;;;;;;;10500641;28;20310;-69
2022/08/21 03:01:55;;;;;;;1.13;0.50;;;;;;;;;;10494038;28;20232;-69
2022/08/21 03:06:56;;;;;;;1.00;0.52;;;;;;;;;;10495080;28;20221;-69
2022/08/21 03:11:57;;;;;;;0.70;0.70;;;;;;;;;;10498290;28;20221;-69
2022/08/21 03:16:58;;;;;;;0.50;0.50;;;;;;;;;;10499680;28;20238;-68
2022/08/21 03:21:59;;;;;;;0.50;0.50;;;;;;;;;;10493090;28;20692;-68
2022/08/21 03:27:00;;;;;;;0.65;0.55;;;;;;;;;;10495712;28;20222;-69
2022/08/21 03:32:02;;;;;;;0.40;0.40;;;;;;;;;;10462772;28;20591;-68
2022/08/21 03:37:03;;;;;;;0.30;0.30;;;;;;;;;;10496141;28;20225;-69
2022/08/21 03:42:06;;;;;;;1.55;0.40;;;;;;;;;;10460376;28;20606;-69
2022/08/21 03:47:07;;;;;;;0.50;0.50;;;;;;;;;;10478495;28;20210;-68
2022/08/21 03:52:08;;;;;;;0.30;0.30;;;;;;;;;;10494677;28;20815;-68
2022/08/21 03:57:10;;;;;;;0.65;0.50;;;;;;;;;;10496168;28;20217;-68
2022/08/21 04:02:12;;;;;;;0.40;0.40;;;;;;;;;;10496075;28;20689;-69
2022/08/21 04:07:13;;;;;;;1.95;0.57;;;;;;;;;;10490008;28;20233;-69
2022/08/21 04:12:14;;;;;;;0.77;0.47;;;;;;;;;;10481921;28;20218;-69
2022/08/21 04:17:16;;;;;;;0.75;0.50;;;;;;;;;;10465799;28;20695;-69
2022/08/21 04:22:17;;;;;;;0.50;0.50;;;;;;;;;;10494820;28;20322;-69
2022/08/21 04:27:18;;;;;;;0.40;0.40;;;;;;;;;;10464999;28;20221;-68
2022/08/21 04:32:25;;;;;;;0.50;0.50;;;;;;;;;;10493260;28;20266;-69
2022/08/21 04:37:26;;;;;;;0.55;0.55;;;;;;;;;;10489602;28;20278;-68
2022/08/21 04:42:28;;;;;;;0.85;0.65;;;;;;;;;;10494850;28;20216;-69
2022/08/21 04:47:29;;;;;;;1.38;0.60;;;;;;;;;;10464690;28;20278;-69
2022/08/21 04:52:30;;;;;;;0.50;0.50;;;;;;;;;;10491519;28;20214;-67
2022/08/21 04:57:31;;;;;;;0.45;0.45;;;;;;;;;;10477135;28;20212;-69
2022/08/21 05:02:32;;;;;;;0.70;0.70;;;;;;;;;;10494765;28;20267;-69
2022/08/21 05:07:34;;;;;;;0.70;0.70;;;;;;;;;;10494459;28;20236;-69
2022/08/21 05:12:35;;;;;;;0.50;0.50;;;;;;;;;;10499117;28;20271;-68
2022/08/21 05:17:37;;;;;;;0.60;0.60;;;;;;;;;;10476893;28;20284;-69
2022/08/21 05:22:38;;;;;;;0.80;0.80;;;;;;;;;;10491323;28;21099;-69
2022/08/21 05:27:39;;;;;;;0.90;0.90;;;;;;;;;;10499152;28;20287;-68
2022/08/21 05:32:40;;;;;;;0.50;0.50;;;;;;;;;;10489151;28;20220;-69
2022/08/21 05:37:41;;;;;;;0.77;0.77;;;;;;;;;;10498169;28;20236;-70
2022/08/21 05:42:42;;;;;;;0.82;0.82;;;;;;;;;;10502563;28;20301;-68
2022/08/21 05:47:43;;;;;;;1.05;0.93;;;;;;;;;;10496307;28;20265;-67
2022/08/21 05:52:44;;;;;;;1.20;0.90;;;;;;;;;;10492525;28;20758;-69
2022/08/21 05:57:45;;;;;;;0.75;0.75;;;;;;;;;;10501141;28;20225;-69
2022/08/21 06:02:46;;;;;;;0.57;0.57;;;;;;;;;;10497537;28;20229;-69
2022/08/21 06:07:47;;;;;;;0.70;0.70;;;;;;;;;;10467225;28;20214;-69
2022/08/21 06:12:54;;;;;;;0.80;0.60;;;;;;;;;;10486952;28;20226;-69
2022/08/21 06:17:55;;;;;;;0.60;0.60;;;;;;;;;;10481948;28;20246;-69
2022/08/21 06:22:56;;;;;;;0.70;0.70;;;;;;;;;;10499192;28;20270;-69
2022/08/21 06:28:08;;;;;;;0.40;0.40;;;;;;;;;;10496993;28;20213;-69
2022/08/21 06:33:09;;;;;;;0.30;0.30;;;;;;;;;;10497209;28;20209;-69
2022/08/21 06:38:10;;;;;;;1.35;0.52;;;;;;;;;;10494754;28;20221;-68
2022/08/21 06:43:13;;;;;;;0.90;0.52;;;;;;;;;;10497520;28;20209;-69
2022/08/21 06:48:14;;;;;;;0.50;0.50;;;;;;;;;;10494754;28;20217;-69
2022/08/21 06:53:16;;;;;;;0.35;0.35;;;;;;;;;;10465136;28;20221;-69
2022/08/21 06:58:19;;;;;;;0.38;0.38;;;;;;;;;;10498450;28;20214;-69
2022/08/21 07:03:28;;;;;;;0.35;0.30;;;;;;;;;;10494436;28;20217;-69
2022/08/21 07:08:30;;;;;;;0.30;0.30;;;;;;;;;;10499172;28;20312;-69
2022/08/21 07:13:31;;;;;;;0.55;0.40;;;;;;;;;;10500072;28;20217;-69
2022/08/21 07:18:32;;;;;;;0.20;0.20;;;;;;;;;;10468835;28;20278;-69
2022/08/21 07:23:35;;;;;;;0.40;0.40;;;;;;;;;;10465455;28;20214;-69
2022/08/21 07:28:36;;;;;;;0.30;0.30;;;;;;;;;;10492924;28;20253;-68
2022/08/21 07:33:37;;;;;;;1.27;0.30;;;;;;;;;;10496697;28;20221;-69
2022/08/21 07:38:38;;;;;;;0.30;0.30;;;;;;;;;;10493455;28;20210;-69
2022/08/21 07:43:39;;;;;;;0.40;0.40;;;;;;;;;;10464499;28;20222;-69
2022/08/21 07:48:40;;;;;;;0.20;0.20;;;;;;;;;;10493557;28;20265;-69
2022/08/21 07:53:41;;;;;;;0.40;0.40;;;;;;;;;;10493670;28;20681;-69
2022/08/21 07:58:42;;;;;;;0.30;0.30;;;;;;;;;;10491954;28;20213;-69
2022/08/21 08:03:44;;;;;;;0.20;0.20;;;;;;;;;;10497384;28;20240;-69
2022/08/21 08:08:46;;;;;;;0.30;0.30;;;;;;;;;;10492468;28;20728;-69
2022/08/21 08:13:49;;;;;;;0.30;0.30;;;;;;;;;;10493924;28;20216;-69
2022/08/21 08:18:51;;;;;;;0.30;0.30;;;;;;;;;;10496075;28;20328;-69
2022/08/21 08:23:52;;;;;;;1.67;0.43;;;;;;;;;;10495750;28;20252;-69
2022/08/21 08:28:53;;;;;;;0.82;0.50;;;;;;;;;;10446050;28;20604;-69
2022/08/21 08:33:54;;;;;;;0.30;0.30;;;;;;;;;;10497057;28;20213;-69
2022/08/21 08:38:55;;;;;;;0.28;0.22;;;;;;;;;;10461301;28;20220;-70
2022/08/21 08:44:00;;;;;;;0.20;0.20;;;;;;;;;;10444560;28;20213;-69
2022/08/21 08:49:16;;;;;;;1.17;0.30;;;;;;;;;;10464120;28;20225;-69
2022/08/21 08:54:26;;;;;;;1.63;0.60;;;;;;;;;;10491580;28;20213;-69
2022/08/21 08:59:28;;;;;;;0.40;0.40;;;;;;;;;;10475925;28;20217;-69
2022/08/21 09:04:29;;;;;;;0.50;0.47;;;;;;;;;;10496644;28;20237;-70
2022/08/21 09:09:59;;;;;;;0.52;0.40;;;;;;;;;;10500698;28;20360;-69
2022/08/21 09:15:00;;;;;;;0.82;0.38;;;;;;;;;;10496396;28;20280;-69
2022/08/21 09:20:02;;;;;;;0.35;0.30;;;;;;;;;;10484564;28;20716;-70
2022/08/21 09:25:09;;;;;;;0.30;0.30;;;;;;;;;;10501380;28;20315;-70
2022/08/21 09:30:11;;;;;;;0.30;0.30;;;;;;;;;;10499350;28;20225;-70
2022/08/21 09:35:22;;;;;;;0.75;0.22;;;;;;;;;;10498052;28;20191;-69
2022/08/21 09:40:31;;;;;;;1.25;0.32;;;;;;;;;;10494086;28;20205;-69
2022/08/21 09:45:33;;;;;;;0.30;0.30;;;;;;;;;;10500213;28;20253;-68
2022/08/21 09:50:34;;;;;;;0.30;0.30;;;;;;;;;;10499802;28;20222;-69
2022/08/21 10:01:01;;;;;;;0.68;0.32;;;;;;;;;;10495015;28;20217;-69
2022/08/21 10:06:05;;;;;;;0.43;0.40;;;;;;;;;;10464444;28;20227;-69
2022/08/21 10:11:07;;;;;;;0.63;0.40;;;;;;;;;;10454810;28;20632;-69
2022/08/21 10:16:21;;;;;;;2.05;0.30;;;;;;;;;;10459638;28;20232;-69
2022/08/21 10:21:22;;;;;;;0.32;0.32;;;;;;;;;;10450871;28;20222;-69
2022/08/21 10:26:43;;;;;;;0.30;0.30;;;;;;;;;;10460254;28;20291;-70
2022/08/21 10:31:55;;;;;;;0.95;0.30;;;;;;;;;;10429295;28;20252;-69
2022/08/21 10:37:22;;;;;;;0.35;0.30;;;;;;;;;;10452106;28;20333;-70
2022/08/21 10:42:34;;;;;;;0.73;0.30;;;;;;;;;;10421053;28;20301;-70
2022/08/21 10:47:38;;;;;;;0.90;0.40;;;;;;;;;;10451521;28;20695;-68
2022/08/21 10:52:45;;;;;;;1.65;0.40;;;;;;;;;;10452142;28;20634;-69
2022/08/21 10:57:52;;;;;;;0.30;0.30;;;;;;;;;;10445160;28;20293;-70
2022/08/21 11:02:56;;;;;;;0.30;0.30;;;;;;;;;;10454912;28;20222;-69
2022/08/21 11:08:12;;;;;;;0.30;0.30;;;;;;;;;;10495643;28;20221;-69
2022/08/21 11:13:17;;;;;;;0.63;0.30;;;;;;;;;;10488364;28;20299;-69
2022/08/21 11:18:25;;;;;;;1.17;0.38;;;;;;;;;;10478859;28;20221;-69
2022/08/21 11:23:31;;;;;;;0.40;0.40;;;;;;;;;;10498548;28;20594;-70
2022/08/21 11:28:38;;;;;;;0.47;0.40;;;;;;;;;;10496637;28;20233;-69
2022/08/21 11:33:58;;;;;;;0.40;0.40;;;;;;;;;;10498133;28;20871;-69
2022/08/21 11:39:17;;;;;;;0.65;0.30;;;;;;;;;;10495752;28;20221;-69
2022/08/21 11:44:36;;;;;;;0.43;0.40;;;;;;;;;;10496911;28;20529;-69
2022/08/21 11:49:40;;;;;;;0.35;0.35;;;;;;;;;;10495858;28;20678;-69
2022/08/21 11:55:00;;;;;;;0.40;0.40;;;;;;;;;;10489628;28;20221;-69
2022/08/21 12:00:07;;;;;;;0.50;0.50;;;;;;;;;;10491761;28;20212;-69
2022/08/21 12:05:23;;;;;;;0.40;0.40;;;;;;;;;;10487023;28;20231;-69
2022/08/21 12:10:31;;;;;;;1.67;0.47;;;;;;;;;;10487661;28;20182;-69
2022/08/21 12:15:32;;;;;;;0.43;0.30;;;;;;;;;;10490608;28;20208;-69
2022/08/21 12:21:03;;;;;;;0.68;0.50;;;;;;;;;;10487973;28;20633;-70
2022/08/21 12:26:11;;;;;;;0.55;0.40;;;;;;;;;;10471137;28;20224;-69
2022/08/21 12:31:20;;;;;;;0.47;0.47;;;;;;;;;;10490023;28;20214;-69
2022/08/21 12:36:25;;;;;;;0.40;0.40;;;;;;;;;;10464995;28;20279;-69
2022/08/21 12:41:32;;;;;;;0.73;0.40;;;;;;;;;;10499585;28;20213;-68
2022/08/21 12:46:43;;;;;;;0.35;0.35;;;;;;;;;;10504624;28;20217;-69
2022/08/21 12:51:51;;;;;;;0.52;0.40;;;;;;;;;;10501582;28;20267;-70
2022/08/21 12:57:05;;;;;;;0.50;0.50;;;;;;;;;;10501080;28;20297;-69
2022/08/21 13:02:26;;;;;;;0.30;0.30;;;;;;;;;;10502104;28;20685;-69
2022/08/21 13:07:32;;;;;;;0.43;0.43;;;;;;;;;;10504894;28;20297;-69
2022/08/21 13:12:34;;;;;;;0.47;0.47;;;;;;;;;;10496693;28;20254;-69
2022/08/21 13:17:37;;;;;;;0.40;0.40;;;;;;;;;;10498965;28;20239;-69
2022/08/21 13:22:42;;;;;;;0.30;0.30;;;;;;;;;;10484502;28;20248;-69
2022/08/21 13:27:47;;;;;;;0.50;0.50;;;;;;;;;;10499254;28;20221;-69
2022/08/21 13:32:50;;;;;;;0.40;0.40;;;;;;;;;;10492969;28;20218;-69
2022/08/21 13:37:52;;;;;;;0.40;0.40;;;;;;;;;;10469574;28;20259;-69
2022/08/21 13:42:53;;;;;;;0.50;0.40;;;;;;;;;;10502784;28;20224;-70
2022/08/21 13:47:55;;;;;;;0.98;0.40;;;;;;;;;;10502782;28;20218;-70
2022/08/21 13:52:56;;;;;;;0.40;0.40;;;;;;;;;;10501992;28;20271;-70
2022/08/21 13:58:02;;;;;;;0.70;0.43;;;;;;;;;;10503628;28;20209;-69
2022/08/21 14:03:06;;;;;;;0.50;0.50;;;;;;;;;;10498786;28;20696;-71
2022/08/21 14:08:11;;;;;;;2.50;0.57;;;;;;;;;;10468199;28;20206;-71
2022/08/21 14:13:34;;;;;;;0.80;0.55;;;;;;;;;;10496304;28;20723;-70
2022/08/21 14:18:43;;;;;;;0.50;0.50;;;;;;;;;;10496246;28;20638;-70
2022/08/21 14:23:44;;;;;;;0.40;0.40;;;;;;;;;;10496853;28;20212;-70
2022/08/21 14:28:45;;;;;;;0.50;0.50;;;;;;;;;;10497210;28;20217;-70
2022/08/21 14:33:47;;;;;;;0.45;0.43;;;;;;;;;;10488475;28;20217;-69
2022/08/21 14:38:48;;;;;;;0.50;0.50;;;;;;;;;;10469526;28;20328;-70
2022/08/21 14:43:49;;;;;;;1.05;0.60;;;;;;;;;;10463606;28;20275;-70
2022/08/21 14:48:50;;;;;;;0.50;0.50;;;;;;;;;;10494619;28;20278;-69
2022/08/21 14:53:52;;;;;;;0.40;0.40;;;;;;;;;;10491246;28;20205;-71
2022/08/21 14:58:55;;;;;;;0.50;0.50;;;;;;;;;;10486707;28;20210;-71
2022/08/21 15:03:56;;;;;;;0.70;0.68;;;;;;;;;;10470009;28;20305;-70
2022/08/21 15:08:57;;;;;;;0.50;0.50;;;;;;;;;;10495856;28;20229;-71
2022/08/21 15:14:00;;;;;;;0.60;0.60;;;;;;;;;;10467849;28;20635;-70
2022/08/21 15:19:01;;;;;;;0.70;0.70;;;;;;;;;;10487478;28;20693;-70
2022/08/21 15:24:02;;;;;;;0.60;0.60;;;;;;;;;;10495030;28;20250;-71
2022/08/21 15:29:05;;;;;;;0.80;0.80;;;;;;;;;;10498292;28;20228;-71
2022/08/21 15:34:06;;;;;;;0.70;0.70;;;;;;;;;;10491104;28;20198;-70
2022/08/21 15:39:07;;;;;;;0.70;0.70;;;;;;;;;;10466046;28;20305;-71
2022/08/21 15:44:09;;;;;;;0.50;0.50;;;;;;;;;;10491675;28;20217;-70
2022/08/21 15:49:11;;;;;;;0.70;0.70;;;;;;;;;;10464508;28;20312;-69
2022/08/21 15:54:12;;;;;;;0.80;0.80;;;;;;;;;;10493032;28;20224;-69
2022/08/21 15:59:15;;;;;;;0.88;0.88;;;;;;;;;;10494663;28;20205;-69
2022/08/21 16:04:20;;;;;;;1.10;0.70;;;;;;;;;;10496387;28;20311;-70
2022/08/21 16:09:21;;;;;;;0.50;0.50;;;;;;;;;;10499786;28;20295;-70
2022/08/21 16:14:22;;;;;;;1.05;0.60;;;;;;;;;;10466110;28;20221;-70
2022/08/21 16:19:23;;;;;;;1.05;1.00;;;;;;;;;;10492499;28;20213;-71
2022/08/21 16:24:24;;;;;;;0.80;0.73;;;;;;;;;;10459267;28;20214;-70
2022/08/21 16:29:32;;;;;;;0.50;0.50;;;;;;;;;;10491652;28;20302;-71
2022/08/21 16:34:34;;;;;;;0.70;0.70;;;;;;;;;;10479794;28;20209;-70
2022/08/21 16:39:35;;;;;;;0.52;0.52;;;;;;;;;;10493051;28;20214;-69
2022/08/21 16:44:36;;;;;;;1.00;0.60;;;;;;;;;;10496130;28;20213;-70
2022/08/21 16:49:37;;;;;;;0.60;0.60;;;;;;;;;;10488859;28;20290;-71
2022/08/21 16:54:39;;;;;;;0.50;0.50;;;;;;;;;;10465095;28;20214;-69
2022/08/21 16:59:40;;;;;;;0.50;0.50;;;;;;;;;;10494241;28;20697;-71
2022/08/21 17:04:41;;;;;;;0.50;0.50;;;;;;;;;;10495180;28;20234;-71
2022/08/21 17:09:42;;;;;;;0.50;0.50;;;;;;;;;;10478614;28;20229;-69
2022/08/21 17:14:44;;;;;;;0.40;0.40;;;;;;;;;;10497856;28;20228;-70
2022/08/21 17:19:45;;;;;;;0.40;0.40;;;;;;;;;;10462920;28;20226;-70
2022/08/21 17:24:46;;;;;;;1.65;0.50;;;;;;;;;;10495160;28;20231;-69
2022/08/21 17:29:48;;;;;;;0.32;0.32;;;;;;;;;;10498858;28;21003;-68
2022/08/21 17:34:49;;;;;;;0.65;0.30;;;;;;;;;;10482209;28;20218;-69
2022/08/21 17:39:50;;;;;;;0.30;0.30;;;;;;;;;;10472196;28;20220;-70
2022/08/21 17:44:52;;;;;;;0.30;0.30;;;;;;;;;;10505019;28;20222;-69
2022/08/21 17:49:53;;;;;;;0.57;0.57;;;;;;;;;;10482663;28;20227;-69
2022/08/21 17:54:54;;;;;;;0.75;0.38;;;;;;;;;;10494944;28;20237;-69
2022/08/21 17:59:55;;;;;;;0.30;0.30;;;;;;;;;;10493795;28;20202;-69
2022/08/21 18:04:57;;;;;;;0.40;0.40;;;;;;;;;;10487343;28;20325;-69
2022/08/21 18:09:58;;;;;;;0.30;0.30;;;;;;;;;;10494600;28;20225;-69
2022/08/21 18:15:00;;;;;;;0.40;0.40;;;;;;;;;;10491902;28;20716;-70
2022/08/21 18:20:01;;;;;;;0.40;0.40;;;;;;;;;;10458915;28;20217;-69
2022/08/21 18:25:03;;;;;;;0.50;0.50;;;;;;;;;;10474916;28;20218;-69
2022/08/21 18:30:06;;;;;;;0.30;0.30;;;;;;;;;;10496920;28;20573;-68
2022/08/21 18:35:08;;;;;;;0.40;0.40;;;;;;;;;;10491481;28;20210;-68
2022/08/21 18:40:09;;;;;;;0.43;0.43;;;;;;;;;;10495485;28;20186;-69
2022/08/21 18:45:12;;;;;;;0.30;0.30;;;;;;;;;;10492932;28;20231;-68
2022/08/21 18:50:14;;;;;;;0.38;0.30;;;;;;;;;;10466015;28;20193;-69
2022/08/21 18:55:17;;;;;;;0.40;0.40;;;;;;;;;;10483659;28;20182;-69
2022/08/21 19:00:20;;;;;;;0.65;0.65;;;;;;;;;;10494625;28;20178;-69
2022/08/21 19:05:21;;;;;;;0.50;0.50;;;;;;;;;;10472996;28;20310;-68
2022/08/21 19:10:23;;;;;;;0.47;0.40;;;;;;;;;;10456638;28;20193;-68
2022/08/21 19:15:25;;;;;;;0.60;0.50;;;;;;;;;;10459852;28;20178;-69
2022/08/21 19:20:33;;;;;;;0.80;0.55;;;;;;;;;;10459844;28;20229;-69
2022/08/21 19:25:34;;;;;;;0.50;0.50;;;;;;;;;;10451776;28;20273;-70
2022/08/21 19:30:39;;;;;;;0.60;0.60;;;;;;;;;;10454302;28;20271;-70
2022/08/21 19:35:40;;;;;;;0.50;0.50;;;;;;;;;;10453336;28;20878;-70
2022/08/21 19:40:41;;;;;;;0.50;0.50;;;;;;;;;;10457562;28;20203;-69
2022/08/21 19:45:42;;;;;;;1.33;0.70;;;;;;;;;;10452516;28;20269;-69
2022/08/21 19:50:44;;;;;;;0.60;0.60;;;;;;;;;;10416336;28;20892;-69
2022/08/21 19:55:46;;;;;;;0.70;0.70;;;;;;;;;;10446651;28;20229;-67
2022/08/21 20:00:47;;;;;;;0.70;0.65;;;;;;;;;;10418618;28;20234;-69
2022/08/21 20:05:48;;;;;;;1.05;0.50;;;;;;;;;;10484546;28;20660;-68
2022/08/21 20:10:49;;;;;;;0.60;0.50;;;;;;;;;;10497005;28;20223;-69
2022/08/21 20:15:51;;;;;;;0.55;0.55;;;;;;;;;;10497438;28;20228;-70
2022/08/21 20:20:52;;;;;;;0.60;0.60;;;;;;;;;;10490931;28;20226;-68
2022/08/21 20:25:53;;;;;;;1.60;0.55;;;;;;;;;;10456247;28;20325;-68
2022/08/21 20:30:54;;;;;;;0.77;0.77;;;;;;;;;;10459601;28;20221;-70
2022/08/21 20:35:55;;;;;;;0.50;0.50;;;;;;;;;;10489517;28;20574;-69
2022/08/21 20:40:56;;;;;;;0.52;0.52;;;;;;;;;;10491810;28;20776;-69
2022/08/21 20:45:59;;;;;;;0.65;0.65;;;;;;;;;;10493594;28;20347;-69
2022/08/21 20:51:08;;;;;;;0.60;0.60;;;;;;;;;;10481902;28;20220;-70
2022/08/21 20:56:13;;;;;;;0.57;0.50;;;;;;;;;;10484626;28;20773;-70
2022/08/21 21:01:14;;;;;;;0.70;0.70;;;;;;;;;;10490244;28;20222;-69
2022/08/21 21:06:24;;;;;;;0.70;0.60;;;;;;;;;;10501427;28;20213;-69
2022/08/21 21:11:30;;;;;;;1.95;0.70;;;;;;;;;;10502173;28;20218;-70
2022/08/21 21:16:35;;;;;;;0.55;0.55;;;;;;;;;;10494023;28;20209;-71
2022/08/21 21:21:39;;;;;;;0.55;0.55;;;;;;;;;;10504145;28;20765;-69
2022/08/21 21:26:53;;;;;;;0.65;0.60;;;;;;;;;;10473074;28;20224;-68
2022/08/21 21:31:55;;;;;;;0.88;0.88;;;;;;;;;;10488154;28;20208;-70
2022/08/21 21:36:58;;;;;;;0.70;0.70;;;;;;;;;;10504336;28;20222;-71
2022/08/21 21:42:28;;;;;;;1.73;1.17;;;;;;;;;;10493390;28;20261;-69
2022/08/21 21:47:47;;;;;;;0.90;0.90;;;;;;;;;;10505690;28;20226;-70
2022/08/21 21:52:55;;;;;;;1.73;0.80;;;;;;;;;;10504044;28;20685;-70
2022/08/21 21:58:05;;;;;;;0.85;0.85;;;;;;;;;;10484205;28;20641;-70
2022/08/21 22:03:12;;;;;;;0.60;0.60;;;;;;;;;;10492180;28;20280;-70
2022/08/21 22:08:14;;;;;;;0.82;0.82;;;;;;;;;;10423558;28;20221;-71
2022/08/21 22:13:18;;;;;;;0.70;0.70;;;;;;;;;;10448077;28;20755;-71
2022/08/21 22:18:24;;;;;;;0.73;0.73;;;;;;;;;;10446481;28;20227;-71
2022/08/21 22:23:28;;;;;;;0.63;0.63;;;;;;;;;;10447818;28;20222;-70
2022/08/21 22:28:32;;;;;;;0.98;0.88;;;;;;;;;;10441410;28;20457;-70
2022/08/21 22:33:33;;;;;;;1.13;0.60;;;;;;;;;;10456557;28;20322;-70
2022/08/21 22:38:35;;;;;;;1.15;0.70;;;;;;;;;;10460888;28;20240;-71
2022/08/21 22:43:36;;;;;;;0.70;0.70;;;;;;;;;;10436904;28;20736;-70
2022/08/21 22:48:38;;;;;;;0.55;0.55;;;;;;;;;;10443065;28;20610;-71
2022/08/21 22:53:41;;;;;;;0.60;0.60;;;;;;;;;;10462518;28;20740;-71
2022/08/21 22:58:54;;;;;;;0.50;0.50;;;;;;;;;;10457080;28;20296;-70
2022/08/21 23:03:56;;;;;;;0.63;0.63;;;;;;;;;;10464941;28;20496;-70
2022/08/21 23:08:58;;;;;;;0.60;0.60;;;;;;;;;;10489872;28;20214;-71
2022/08/21 23:13:59;;;;;;;0.47;0.43;;;;;;;;;;10487464;28;20316;-71
2022/08/21 23:19:18;;;;;;;0.50;0.50;;;;;;;;;;10488495;28;20212;-71
2022/08/21 23:24:34;;;;;;;1.23;0.60;;;;;;;;;;10495194;28;20605;-71
2022/08/21 23:29:47;;;;;;;0.60;0.60;;;;;;;;;;10496413;28;20227;-71
2022/08/21 23:34:48;;;;;;;0.75;0.57;;;;;;;;;;10494149;28;20229;-71
2022/08/21 23:39:58;;;;;;;0.60;0.60;;;;;;;;;;10494528;28;20217;-70
2022/08/21 23:45:10;;;;;;;0.73;0.50;;;;;;;;;;10471698;28;20737;-70
2022/08/21 23:50:21;;;;;;;0.60;0.60;;;;;;;;;;10486828;28;20226;-71
2022/08/21 23:55:36;;;;;;;0.65;0.65;;;;;;;;;;10491455;28;20178;-71
